Time;durP1;ratioP1;P1;durP2;ratioP2;P2;SDS_P1;SDS_P2;PMS_P1;PMS_P2;Temp;Humidity;BMP_temperature;BMP_pressure;BME280_temperature;BME280_humidity;BME280_pressure;Samples;Min_cycle;Max_cycle;Signal;HPM_P1;HPM_P2
2021/05/28 00:02:15;;;;;;;3.90;2.80;;;;;;;;;;5055458;28;20446;-67
2021/05/28 00:04:42;;;;;;;7.80;3.43;;;;;;;;;;5056921;28;20394;-67
2021/05/28 00:07:08;;;;;;;5.57;4.10;;;;;;;;;;5055537;28;20891;-67
2021/05/28 00:09:35;;;;;;;6.10;4.00;;;;;;;;;;5055823;28;20507;-67
2021/05/28 00:12:01;;;;;;;5.00;3.50;;;;;;;;;;5055743;28;20402;-67
2021/05/28 00:14:27;;;;;;;7.17;4.00;;;;;;;;;;5055777;28;20443;-67
2021/05/28 00:16:54;;;;;;;6.17;3.03;;;;;;;;;;5055507;28;20467;-67
2021/05/28 00:19:20;;;;;;;3.97;3.27;;;;;;;;;;5055940;28;20453;-67
2021/05/28 00:21:46;;;;;;;8.00;4.47;;;;;;;;;;5056558;28;20406;-67
2021/05/28 00:24:12;;;;;;;6.27;3.43;;;;;;;;;;5055363;28;20421;-67
2021/05/28 00:26:38;;;;;;;9.17;4.37;;;;;;;;;;5056335;28;20402;-67
2021/05/28 00:29:05;;;;;;;9.37;3.60;;;;;;;;;;5055542;28;20872;-67
2021/05/28 00:31:31;;;;;;;6.50;4.30;;;;;;;;;;5056516;28;20402;-67
2021/05/28 00:33:57;;;;;;;7.50;4.50;;;;;;;;;;5040178;28;20458;-67
2021/05/28 00:36:23;;;;;;;5.80;3.40;;;;;;;;;;5036965;28;20757;-67
2021/05/28 00:38:49;;;;;;;8.80;3.87;;;;;;;;;;5048791;28;20464;-67
2021/05/28 00:41:15;;;;;;;8.00;3.80;;;;;;;;;;5056964;28;20404;-67
2021/05/28 00:43:41;;;;;;;8.47;4.90;;;;;;;;;;5055635;28;20444;-67
2021/05/28 00:46:07;;;;;;;6.40;3.40;;;;;;;;;;5055211;28;20448;-67
2021/05/28 00:48:34;;;;;;;5.30;2.83;;;;;;;;;;5055179;28;20421;-67
2021/05/28 00:51:00;;;;;;;5.80;2.90;;;;;;;;;;5056128;28;20409;-67
2021/05/28 00:53:27;;;;;;;6.77;3.80;;;;;;;;;;5054935;28;20479;-67
2021/05/28 00:55:53;;;;;;;7.13;3.77;;;;;;;;;;5055920;28;20413;-67
2021/05/28 00:58:19;;;;;;;4.60;3.23;;;;;;;;;;5055102;28;20457;-67
2021/05/28 01:00:45;;;;;;;5.90;2.77;;;;;;;;;;5055761;28;20414;-67
2021/05/28 01:03:11;;;;;;;4.00;2.60;;;;;;;;;;5054446;28;20434;-67
2021/05/28 01:05:37;;;;;;;2.90;2.40;;;;;;;;;;5055685;28;20398;-67
2021/05/28 01:08:03;;;;;;;3.40;2.60;;;;;;;;;;5052430;28;21011;-67
2021/05/28 01:10:30;;;;;;;3.17;2.50;;;;;;;;;;5055927;28;20500;-67
2021/05/28 01:13:05;;;;;;;7.43;3.00;;;;;;;;;;5054917;28;20472;-67
2021/05/28 01:15:32;;;;;;;3.80;2.50;;;;;;;;;;5055535;28;20464;-67
2021/05/28 01:17:59;;;;;;;4.00;2.40;;;;;;;;;;5049597;28;20423;-67
2021/05/28 01:20:25;;;;;;;3.43;2.37;;;;;;;;;;5038826;28;20433;-67
2021/05/28 01:22:56;;;;;;;2.80;2.20;;;;;;;;;;5038303;28;20796;-67
2021/05/28 01:25:23;;;;;;;3.20;2.50;;;;;;;;;;5054247;28;20477;-67
2021/05/28 01:27:49;;;;;;;2.70;2.10;;;;;;;;;;5054583;28;20775;-67
2021/05/28 01:30:15;;;;;;;3.60;2.70;;;;;;;;;;5054998;28;20461;-67
2021/05/28 01:32:42;;;;;;;3.37;2.53;;;;;;;;;;5055310;28;20456;-66
2021/05/28 01:35:09;;;;;;;3.10;2.80;;;;;;;;;;5036929;28;20520;-67
2021/05/28 01:37:36;;;;;;;2.90;2.30;;;;;;;;;;5035106;28;20398;-67
2021/05/28 01:40:02;;;;;;;3.00;2.30;;;;;;;;;;5034934;28;20488;-67
2021/05/28 01:42:28;;;;;;;3.53;2.50;;;;;;;;;;5034976;28;20438;-66
2021/05/28 01:44:54;;;;;;;13.90;4.03;;;;;;;;;;5035367;28;20862;-66
2021/05/28 01:47:20;;;;;;;3.00;2.40;;;;;;;;;;5035118;28;20920;-67
2021/05/28 01:49:46;;;;;;;3.23;2.50;;;;;;;;;;5047328;28;20433;-66
2021/05/28 01:52:15;;;;;;;4.07;2.80;;;;;;;;;;5054816;28;20508;-66
2021/05/28 01:54:41;;;;;;;3.80;2.60;;;;;;;;;;5053154;28;20491;-66
2021/05/28 01:57:11;;;;;;;4.10;3.10;;;;;;;;;;5055247;28;20935;-66
2021/05/28 01:59:37;;;;;;;3.93;2.77;;;;;;;;;;5041457;28;20589;-66
2021/05/28 02:02:03;;;;;;;3.40;2.50;;;;;;;;;;5053517;28;20442;-66
2021/05/28 02:04:29;;;;;;;3.53;2.50;;;;;;;;;;5053732;28;20418;-67
2021/05/28 02:06:56;;;;;;;3.90;2.80;;;;;;;;;;5052519;28;20804;-67
2021/05/28 02:09:22;;;;;;;2.70;1.90;;;;;;;;;;5053844;28;20495;-67
2021/05/28 02:11:48;;;;;;;3.00;2.47;;;;;;;;;;5054466;28;20402;-67
2021/05/28 02:14:14;;;;;;;3.53;3.00;;;;;;;;;;5044815;28;20485;-67
2021/05/28 02:16:40;;;;;;;4.10;2.50;;;;;;;;;;5053724;28;20414;-67
2021/05/28 02:19:08;;;;;;;2.90;2.07;;;;;;;;;;5053172;28;20446;-66
2021/05/28 02:21:34;;;;;;;3.97;2.83;;;;;;;;;;5054335;28;20497;-66
2021/05/28 02:24:00;;;;;;;4.10;2.73;;;;;;;;;;5047352;28;20458;-66
2021/05/28 02:26:26;;;;;;;4.47;2.50;;;;;;;;;;5034583;28;20837;-67
2021/05/28 02:28:52;;;;;;;2.77;2.43;;;;;;;;;;5038898;28;20420;-67
2021/05/28 02:31:18;;;;;;;3.07;2.57;;;;;;;;;;5054399;28;20834;-67
2021/05/28 02:33:44;;;;;;;4.33;2.73;;;;;;;;;;5046565;28;20438;-67
2021/05/28 02:36:11;;;;;;;3.37;2.83;;;;;;;;;;5034571;28;20411;-67
2021/05/28 02:38:37;;;;;;;3.70;2.33;;;;;;;;;;5034205;28;20899;-67
2021/05/28 02:41:03;;;;;;;3.43;2.77;;;;;;;;;;5034876;28;20411;-67
2021/05/28 02:43:29;;;;;;;3.10;2.53;;;;;;;;;;5033863;28;20442;-67
2021/05/28 02:45:56;;;;;;;3.20;2.67;;;;;;;;;;5052616;28;20422;-67
2021/05/28 02:48:22;;;;;;;7.13;3.40;;;;;;;;;;5053303;28;20398;-67
2021/05/28 02:50:49;;;;;;;4.73;2.90;;;;;;;;;;5053360;28;20418;-67
2021/05/28 02:53:18;;;;;;;4.10;2.67;;;;;;;;;;5053640;28;20493;-67
2021/05/28 02:55:45;;;;;;;3.70;2.50;;;;;;;;;;5052949;28;20453;-67
2021/05/28 02:58:11;;;;;;;4.20;2.90;;;;;;;;;;5053682;28;20453;-67
2021/05/28 03:00:37;;;;;;;4.50;2.80;;;;;;;;;;5037293;28;20430;-67
2021/05/28 03:03:04;;;;;;;4.00;3.00;;;;;;;;;;5053572;28;20938;-67
2021/05/28 03:05:30;;;;;;;3.80;3.10;;;;;;;;;;5036621;28;20505;-67
2021/05/28 03:07:56;;;;;;;3.60;2.73;;;;;;;;;;5034420;28;20426;-67
2021/05/28 03:10:22;;;;;;;6.27;3.23;;;;;;;;;;5048862;28;20872;-67
2021/05/28 03:12:48;;;;;;;4.70;3.10;;;;;;;;;;5053579;28;20421;-67
2021/05/28 03:15:14;;;;;;;3.87;2.90;;;;;;;;;;5052199;28;20469;-67
2021/05/28 03:17:45;;;;;;;3.50;2.80;;;;;;;;;;5053627;28;20407;-67
2021/05/28 03:23:07;;;;;;;3.53;2.90;;;;;;;;;;5044446;28;20495;-66
2021/05/28 03:25:33;;;;;;;4.83;3.10;;;;;;;;;;5036569;28;20879;-67
2021/05/28 03:28:00;;;;;;;7.73;3.73;;;;;;;;;;5033401;28;20391;-67
2021/05/28 03:30:26;;;;;;;4.80;3.03;;;;;;;;;;5047039;28;20430;-67
2021/05/28 03:32:52;;;;;;;5.87;3.73;;;;;;;;;;5051402;28;20418;-67
2021/05/28 03:35:18;;;;;;;5.70;3.67;;;;;;;;;;5046158;28;20426;-68
2021/05/28 03:37:44;;;;;;;3.70;3.30;;;;;;;;;;5053118;28;20448;-68
2021/05/28 03:40:10;;;;;;;5.10;3.50;;;;;;;;;;5050826;28;20559;-67
2021/05/28 03:42:37;;;;;;;4.23;3.47;;;;;;;;;;5052948;28;20430;-66
2021/05/28 03:45:04;;;;;;;6.00;4.17;;;;;;;;;;5052437;28;20429;-67
2021/05/28 03:47:30;;;;;;;4.97;3.73;;;;;;;;;;5053288;28;20433;-67
2021/05/28 03:49:56;;;;;;;4.50;3.73;;;;;;;;;;5050637;28;20426;-67
2021/05/28 03:52:22;;;;;;;4.43;3.53;;;;;;;;;;5053984;28;20484;-67
2021/05/28 03:54:48;;;;;;;4.90;3.83;;;;;;;;;;5051870;28;20531;-67
2021/05/28 03:57:14;;;;;;;4.37;3.40;;;;;;;;;;5053559;28;20463;-67
2021/05/28 03:59:41;;;;;;;5.50;3.53;;;;;;;;;;5050891;28;20458;-67
2021/05/28 04:02:07;;;;;;;4.27;2.97;;;;;;;;;;5053230;28;20905;-67
2021/05/28 04:04:34;;;;;;;5.60;3.80;;;;;;;;;;5051637;28;20398;-66
2021/05/28 04:07:01;;;;;;;4.50;3.13;;;;;;;;;;5053104;28;20406;-67
2021/05/28 04:09:27;;;;;;;3.30;2.70;;;;;;;;;;5040790;28;20430;-67
2021/05/28 04:11:53;;;;;;;3.70;2.87;;;;;;;;;;5052569;28;20402;-67
2021/05/28 04:14:19;;;;;;;3.53;2.80;;;;;;;;;;5052638;28;20521;-67
2021/05/28 04:16:45;;;;;;;4.67;3.53;;;;;;;;;;5051743;28;20470;-67
2021/05/28 04:19:11;;;;;;;4.00;3.23;;;;;;;;;;5052592;28;20934;-67
2021/05/28 04:21:37;;;;;;;4.17;3.20;;;;;;;;;;5051468;28;20795;-67
2021/05/28 04:24:04;;;;;;;5.17;3.90;;;;;;;;;;5052765;28;20422;-68
2021/05/28 04:26:30;;;;;;;6.57;4.10;;;;;;;;;;5051656;28;20437;-67
2021/05/28 04:28:56;;;;;;;5.63;3.57;;;;;;;;;;5051575;28;20507;-67
2021/05/28 04:31:22;;;;;;;6.20;3.20;;;;;;;;;;5051644;28;20465;-67
2021/05/28 04:33:48;;;;;;;4.80;3.10;;;;;;;;;;5052407;28;20471;-67
2021/05/28 04:36:14;;;;;;;6.93;3.17;;;;;;;;;;5037718;28;20953;-67
2021/05/28 04:38:40;;;;;;;3.90;3.03;;;;;;;;;;5032750;28;20529;-66
2021/05/28 04:41:06;;;;;;;5.43;3.03;;;;;;;;;;5045144;28;20433;-67
2021/05/28 04:43:33;;;;;;;2.93;2.53;;;;;;;;;;5056122;28;20426;-67
2021/05/28 04:45:59;;;;;;;3.80;2.60;;;;;;;;;;5054032;28;20428;-67
2021/05/28 04:48:25;;;;;;;4.13;2.90;;;;;;;;;;5055977;28;20519;-67
2021/05/28 04:50:51;;;;;;;5.70;2.83;;;;;;;;;;5045611;28;20797;-67
2021/05/28 04:53:17;;;;;;;3.63;2.83;;;;;;;;;;5036072;28;20426;-67
2021/05/28 04:55:43;;;;;;;5.10;3.50;;;;;;;;;;5044618;28;20440;-67
2021/05/28 04:58:09;;;;;;;8.60;3.40;;;;;;;;;;5056036;28;20429;-67
2021/05/28 05:00:35;;;;;;;3.47;2.60;;;;;;;;;;5047939;28;20953;-67
2021/05/28 05:03:03;;;;;;;3.77;2.70;;;;;;;;;;5053119;28;20457;-67
2021/05/28 05:05:29;;;;;;;4.03;2.87;;;;;;;;;;5048698;28;20477;-67
2021/05/28 05:07:55;;;;;;;3.10;2.60;;;;;;;;;;5036019;28;20403;-67
2021/05/28 05:10:21;;;;;;;4.40;3.20;;;;;;;;;;5036110;28;20790;-67
2021/05/28 05:12:47;;;;;;;8.00;3.00;;;;;;;;;;5036003;28;20434;-67
2021/05/28 05:15:13;;;;;;;2.93;2.37;;;;;;;;;;5039059;28;20525;-67
2021/05/28 05:17:39;;;;;;;5.60;4.07;;;;;;;;;;5055667;28;20414;-67
2021/05/28 05:20:06;;;;;;;5.80;3.93;;;;;;;;;;5052732;28;20466;-66
2021/05/28 05:22:32;;;;;;;5.00;2.80;;;;;;;;;;5035978;28;20427;-67
2021/05/28 05:24:58;;;;;;;9.07;3.10;;;;;;;;;;5036889;28;20963;-67
2021/05/28 05:27:24;;;;;;;4.10;3.03;;;;;;;;;;5055361;28;20443;-67
2021/05/28 05:29:50;;;;;;;3.80;2.20;;;;;;;;;;5054538;28;20751;-67
2021/05/28 05:32:18;;;;;;;5.17;2.70;;;;;;;;;;5055005;28;20985;-67
2021/05/28 05:34:45;;;;;;;2.90;2.20;;;;;;;;;;5046865;28;20431;-67
2021/05/28 05:37:11;;;;;;;6.70;2.60;;;;;;;;;;5054373;28;20430;-67
2021/05/28 05:39:37;;;;;;;8.67;2.50;;;;;;;;;;5055091;28;20544;-67
2021/05/28 05:42:03;;;;;;;5.97;2.90;;;;;;;;;;5037032;28;20461;-67
2021/05/28 05:44:30;;;;;;;6.10;2.83;;;;;;;;;;5035114;28;20402;-67
2021/05/28 05:46:56;;;;;;;4.50;2.90;;;;;;;;;;5051704;28;20769;-67
2021/05/28 05:49:22;;;;;;;5.50;3.17;;;;;;;;;;5055766;28;20410;-67
2021/05/28 05:51:48;;;;;;;7.80;3.93;;;;;;;;;;5052409;28;20474;-67
2021/05/28 05:54:14;;;;;;;4.10;2.97;;;;;;;;;;5054630;28;20448;-67
2021/05/28 05:56:41;;;;;;;5.10;3.37;;;;;;;;;;5054286;28;20429;-67
2021/05/28 05:59:07;;;;;;;4.60;2.47;;;;;;;;;;5054833;28;20826;-67
2021/05/28 06:01:33;;;;;;;5.10;2.60;;;;;;;;;;5040160;28;20919;-67
2021/05/28 06:04:00;;;;;;;5.80;2.87;;;;;;;;;;5049229;28;20448;-67
2021/05/28 06:06:27;;;;;;;6.67;2.73;;;;;;;;;;5052869;28;20449;-67
2021/05/28 06:08:53;;;;;;;5.10;2.80;;;;;;;;;;5053746;28;20417;-67
2021/05/28 06:11:19;;;;;;;8.20;2.43;;;;;;;;;;5052297;28;20432;-68
2021/05/28 06:13:45;;;;;;;5.50;2.80;;;;;;;;;;5054548;28;20466;-68
2021/05/28 06:16:12;;;;;;;6.77;2.90;;;;;;;;;;5053453;28;20460;-67
2021/05/28 06:18:38;;;;;;;4.37;2.70;;;;;;;;;;5054322;28;20521;-68
2021/05/28 06:21:06;;;;;;;4.07;2.50;;;;;;;;;;5053247;28;20445;-67
2021/05/28 06:23:32;;;;;;;3.43;2.00;;;;;;;;;;5054266;28;20414;-67
2021/05/28 06:25:59;;;;;;;3.63;2.60;;;;;;;;;;5053566;28;20769;-68
2021/05/28 06:28:25;;;;;;;4.70;2.17;;;;;;;;;;5043193;28;20426;-67
2021/05/28 06:30:51;;;;;;;3.23;2.07;;;;;;;;;;5034707;28;20399;-67
2021/05/28 06:33:17;;;;;;;3.23;2.03;;;;;;;;;;5054478;28;20426;-67
2021/05/28 06:35:43;;;;;;;4.17;2.93;;;;;;;;;;5054240;28;20436;-66
2021/05/28 06:38:09;;;;;;;4.00;2.00;;;;;;;;;;5053378;28;20432;-67
2021/05/28 06:40:37;;;;;;;4.20;2.10;;;;;;;;;;5054171;28;20402;-66
2021/05/28 06:43:03;;;;;;;3.27;2.13;;;;;;;;;;5052597;28;20844;-67
2021/05/28 06:45:29;;;;;;;6.07;2.40;;;;;;;;;;5054105;28;20406;-67
2021/05/28 06:47:55;;;;;;;4.10;2.37;;;;;;;;;;5051544;28;20787;-67
2021/05/28 06:50:21;;;;;;;2.83;2.43;;;;;;;;;;5054265;28;20815;-67
2021/05/28 06:52:47;;;;;;;4.83;2.73;;;;;;;;;;5051735;28;20536;-67
2021/05/28 06:55:14;;;;;;;3.97;2.93;;;;;;;;;;5053766;28;20413;-67
2021/05/28 06:57:40;;;;;;;6.03;2.80;;;;;;;;;;5052999;28;20422;-67
2021/05/28 07:00:08;;;;;;;2.40;2.10;;;;;;;;;;5053405;28;20445;-67
2021/05/28 07:02:34;;;;;;;3.53;2.50;;;;;;;;;;5051902;28;20465;-67
2021/05/28 07:05:00;;;;;;;4.50;2.70;;;;;;;;;;5052978;28;20434;-66
2021/05/28 07:07:26;;;;;;;3.40;3.00;;;;;;;;;;5052507;28;20414;-67
2021/05/28 07:09:52;;;;;;;3.90;3.23;;;;;;;;;;5053606;28;20806;-67
2021/05/28 07:12:18;;;;;;;3.50;2.83;;;;;;;;;;5052930;28;20780;-67
2021/05/28 07:14:44;;;;;;;3.27;2.60;;;;;;;;;;5052103;28;20424;-67
2021/05/28 07:17:11;;;;;;;4.40;2.80;;;;;;;;;;5047692;28;20423;-67
2021/05/28 07:19:37;;;;;;;3.03;2.30;;;;;;;;;;5032432;28;20454;-67
2021/05/28 07:22:03;;;;;;;4.20;2.80;;;;;;;;;;5043414;28;20494;-67
2021/05/28 07:24:29;;;;;;;4.23;3.30;;;;;;;;;;5038298;28;20548;-67
2021/05/28 07:26:55;;;;;;;4.47;3.20;;;;;;;;;;5042443;28;20479;-66
2021/05/28 07:29:22;;;;;;;3.77;3.27;;;;;;;;;;5042338;28;20407;-67
2021/05/28 07:31:48;;;;;;;4.57;2.90;;;;;;;;;;5044425;28;20556;-67
2021/05/28 07:34:14;;;;;;;4.57;3.40;;;;;;;;;;5053021;28;20934;-67
2021/05/28 07:36:40;;;;;;;7.13;3.00;;;;;;;;;;5049990;28;20423;-67
2021/05/28 07:39:07;;;;;;;10.70;3.27;;;;;;;;;;5053044;28;20452;-67
2021/05/28 07:41:33;;;;;;;3.40;2.90;;;;;;;;;;5051967;28;20448;-67
2021/05/28 07:43:59;;;;;;;3.50;2.60;;;;;;;;;;5052875;28;20926;-67
2021/05/28 07:46:25;;;;;;;5.17;2.70;;;;;;;;;;5052160;28;20540;-67
2021/05/28 07:48:51;;;;;;;4.27;2.73;;;;;;;;;;5052863;28;20492;-68
2021/05/28 07:51:17;;;;;;;3.47;2.40;;;;;;;;;;5051509;28;20426;-68
2021/05/28 07:53:44;;;;;;;3.30;2.57;;;;;;;;;;5052778;28;20525;-68
2021/05/28 07:56:10;;;;;;;4.00;3.00;;;;;;;;;;5053455;28;20404;-68
2021/05/28 07:58:36;;;;;;;3.70;2.83;;;;;;;;;;5051845;28;20479;-68
2021/05/28 08:01:03;;;;;;;3.90;2.67;;;;;;;;;;5052827;28;20747;-67
2021/05/28 08:03:29;;;;;;;4.10;2.80;;;;;;;;;;5051588;28;20553;-67
2021/05/28 08:05:56;;;;;;;4.53;3.00;;;;;;;;;;5052900;28;20398;-67
2021/05/28 08:08:26;;;;;;;3.20;2.07;;;;;;;;;;5050641;28;20426;-68
2021/05/28 08:10:52;;;;;;;6.47;2.90;;;;;;;;;;5052862;28;20394;-67
2021/05/28 08:13:18;;;;;;;3.30;2.30;;;;;;;;;;5051194;28;20951;-67
2021/05/28 08:15:44;;;;;;;4.00;2.87;;;;;;;;;;5052359;28;20773;-67
2021/05/28 08:18:10;;;;;;;7.37;3.10;;;;;;;;;;5049753;28;20417;-67
2021/05/28 08:20:36;;;;;;;6.17;3.33;;;;;;;;;;5057083;28;20910;-67
2021/05/28 08:23:02;;;;;;;3.33;2.50;;;;;;;;;;5041500;28;20439;-67
2021/05/28 08:25:29;;;;;;;5.40;2.90;;;;;;;;;;5036674;28;20407;-67
2021/05/28 08:27:56;;;;;;;4.93;2.83;;;;;;;;;;5049450;28;20422;-67
2021/05/28 08:30:23;;;;;;;4.10;2.37;;;;;;;;;;5056834;28;20420;-68
2021/05/28 08:32:49;;;;;;;3.50;2.60;;;;;;;;;;5055572;28;20521;-68
2021/05/28 08:35:16;;;;;;;3.67;3.00;;;;;;;;;;5056695;28;20502;-68
2021/05/28 08:37:42;;;;;;;6.20;3.40;;;;;;;;;;5055341;28;20432;-68
2021/05/28 08:40:08;;;;;;;4.60;3.03;;;;;;;;;;5056520;28;20438;-68
2021/05/28 08:42:35;;;;;;;3.83;2.93;;;;;;;;;;5053674;28;20484;-68
2021/05/28 08:45:01;;;;;;;3.40;2.97;;;;;;;;;;5056445;28;20402;-68
2021/05/28 08:47:27;;;;;;;6.80;3.30;;;;;;;;;;5053815;28;20924;-68
2021/05/28 08:49:55;;;;;;;4.20;3.20;;;;;;;;;;5050065;28;20411;-68
2021/05/28 08:52:22;;;;;;;3.40;2.80;;;;;;;;;;5048472;28;20460;-68
2021/05/28 08:54:49;;;;;;;5.23;3.33;;;;;;;;;;5043721;28;20422;-68
2021/05/28 08:57:16;;;;;;;3.90;2.97;;;;;;;;;;5047339;28;20444;-68
2021/05/28 08:59:42;;;;;;;6.47;3.43;;;;;;;;;;5044455;28;20445;-67
2021/05/28 09:02:27;;;;;;;8.00;2.90;;;;;;;;;;5052263;28;20495;-68
2021/05/28 09:05:03;;;;;;;5.43;3.57;;;;;;;;;;5055779;28;20876;-68
2021/05/28 09:07:29;;;;;;;3.80;3.20;;;;;;;;;;5053666;28;20426;-68
2021/05/28 09:09:55;;;;;;;3.90;2.80;;;;;;;;;;5056010;28;20406;-68
2021/05/28 09:12:28;;;;;;;5.53;3.00;;;;;;;;;;5054592;28;20457;-68
2021/05/28 09:14:55;;;;;;;4.00;3.33;;;;;;;;;;5055477;28;20430;-68
2021/05/28 09:17:21;;;;;;;3.97;3.20;;;;;;;;;;5053654;28;20773;-68
2021/05/28 09:19:51;;;;;;;4.37;3.40;;;;;;;;;;5055435;28;20491;-68
2021/05/28 09:22:19;;;;;;;3.80;2.70;;;;;;;;;;5054861;28;20973;-68
2021/05/28 09:24:45;;;;;;;4.13;2.80;;;;;;;;;;5055690;28;20410;-68
2021/05/28 09:27:19;;;;;;;4.70;3.67;;;;;;;;;;5054282;28;20414;-68
2021/05/28 09:30:01;;;;;;;3.20;2.50;;;;;;;;;;5054754;28;20428;-68
2021/05/28 09:32:28;;;;;;;3.10;2.60;;;;;;;;;;5053158;28;20519;-68
2021/05/28 09:34:54;;;;;;;5.80;2.60;;;;;;;;;;5055268;28;20402;-68
2021/05/28 09:37:20;;;;;;;4.73;3.43;;;;;;;;;;5053963;28;20477;-68
2021/05/28 09:39:46;;;;;;;4.20;2.83;;;;;;;;;;5054025;28;20863;-68
2021/05/28 09:42:12;;;;;;;4.30;2.10;;;;;;;;;;5054132;28;20449;-68
2021/05/28 09:44:38;;;;;;;4.60;3.13;;;;;;;;;;5054831;28;20395;-68
2021/05/28 09:47:11;;;;;;;3.50;2.53;;;;;;;;;;5051309;28;20417;-68
2021/05/28 09:49:37;;;;;;;4.17;2.53;;;;;;;;;;5041386;28;20422;-68
2021/05/28 09:52:12;;;;;;;6.30;2.30;;;;;;;;;;5054036;28;20962;-68
2021/05/28 09:54:39;;;;;;;3.17;2.77;;;;;;;;;;5054369;28;20397;-68
2021/05/28 09:57:06;;;;;;;5.03;3.00;;;;;;;;;;5053913;28;20458;-68
2021/05/28 09:59:43;;;;;;;4.70;3.30;;;;;;;;;;5045425;28;20473;-68
2021/05/28 10:02:21;;;;;;;6.30;3.40;;;;;;;;;;5045055;28;20437;-69
2021/05/28 10:04:55;;;;;;;3.73;3.07;;;;;;;;;;5034519;28;20442;-68
2021/05/28 10:07:21;;;;;;;6.20;3.20;;;;;;;;;;5046083;28;20429;-68
2021/05/28 10:09:48;;;;;;;4.37;2.80;;;;;;;;;;5054710;28;20409;-68
2021/05/28 10:12:14;;;;;;;6.73;3.40;;;;;;;;;;5050368;28;20499;-68
2021/05/28 10:14:40;;;;;;;7.23;3.90;;;;;;;;;;5053998;28;20429;-69
2021/05/28 10:17:07;;;;;;;6.27;3.40;;;;;;;;;;5053193;28;20926;-67
2021/05/28 10:19:33;;;;;;;4.17;3.20;;;;;;;;;;5054191;28;20499;-68
2021/05/28 10:22:02;;;;;;;7.20;4.10;;;;;;;;;;5053054;28;20418;-68
2021/05/28 10:24:30;;;;;;;4.03;3.03;;;;;;;;;;5053382;28;20480;-68
2021/05/28 10:26:56;;;;;;;5.77;3.07;;;;;;;;;;5053166;28;20402;-69
2021/05/28 10:29:29;;;;;;;5.03;2.83;;;;;;;;;;5053911;28;20409;-68
2021/05/28 10:31:56;;;;;;;8.50;2.90;;;;;;;;;;5054078;28;20414;-68
2021/05/28 10:34:23;;;;;;;5.13;2.70;;;;;;;;;;5052977;28;20501;-68
2021/05/28 10:36:49;;;;;;;7.27;3.00;;;;;;;;;;5053789;28;20410;-67
2021/05/28 10:39:16;;;;;;;4.20;2.83;;;;;;;;;;5052796;28;20492;-67
2021/05/28 10:41:43;;;;;;;4.93;3.13;;;;;;;;;;5053734;28;20406;-68
2021/05/28 10:44:14;;;;;;;3.27;2.80;;;;;;;;;;5053944;28;20799;-68
2021/05/28 10:47:12;;;;;;;5.03;3.27;;;;;;;;;;5053707;28;20496;-67
2021/05/28 10:49:43;;;;;;;3.87;2.93;;;;;;;;;;5019668;28;20475;-68
2021/05/28 10:52:13;;;;;;;4.77;2.53;;;;;;;;;;5035058;28;20868;-68
2021/05/28 10:54:42;;;;;;;4.53;2.90;;;;;;;;;;5052775;28;20532;-68
2021/05/28 10:57:17;;;;;;;3.93;2.70;;;;;;;;;;5049159;28;20414;-68
2021/05/28 10:59:48;;;;;;;5.90;2.80;;;;;;;;;;5053719;28;20449;-68
2021/05/28 11:02:16;;;;;;;4.03;3.00;;;;;;;;;;5052683;28;20937;-68
2021/05/28 11:04:42;;;;;;;5.40;3.77;;;;;;;;;;5053897;28;20507;-68
2021/05/28 11:07:11;;;;;;;5.67;4.00;;;;;;;;;;5049409;28;20510;-68
2021/05/28 11:09:37;;;;;;;6.10;4.40;;;;;;;;;;5047325;28;20434;-68
2021/05/28 11:12:07;;;;;;;7.00;3.70;;;;;;;;;;5053174;28;20402;-68
2021/05/28 11:14:36;;;;;;;4.63;3.30;;;;;;;;;;5052208;28;20452;-68
2021/05/28 11:17:02;;;;;;;4.07;3.13;;;;;;;;;;5052738;28;20416;-68
2021/05/28 11:19:33;;;;;;;9.23;3.47;;;;;;;;;;5051926;28;20454;-68
2021/05/28 11:22:00;;;;;;;7.00;3.23;;;;;;;;;;5051794;28;20457;-68
2021/05/28 11:24:45;;;;;;;6.80;3.13;;;;;;;;;;5051832;28;20870;-68
2021/05/28 11:27:15;;;;;;;4.43;3.20;;;;;;;;;;5052809;28;20402;-68
2021/05/28 11:29:42;;;;;;;6.60;4.13;;;;;;;;;;5052115;28;20959;-68
2021/05/28 11:32:28;;;;;;;4.00;3.00;;;;;;;;;;5052844;28;20477;-68
2021/05/28 11:35:13;;;;;;;3.73;3.20;;;;;;;;;;5051946;28;20436;-67
2021/05/28 11:37:40;;;;;;;3.90;3.30;;;;;;;;;;5052560;28;20406;-68
2021/05/28 11:40:12;;;;;;;5.07;3.50;;;;;;;;;;5052130;28;20553;-67
2021/05/28 11:42:39;;;;;;;7.43;4.50;;;;;;;;;;5053391;28;20464;-68
2021/05/28 11:45:07;;;;;;;7.27;4.63;;;;;;;;;;5052084;28;20456;-68
2021/05/28 11:47:37;;;;;;;5.30;3.90;;;;;;;;;;5052775;28;20405;-68
2021/05/28 11:50:05;;;;;;;5.33;3.97;;;;;;;;;;5052067;28;20429;-67
2021/05/28 11:52:31;;;;;;;5.43;3.60;;;;;;;;;;5051992;28;20441;-68
2021/05/28 11:55:24;;;;;;;7.67;3.50;;;;;;;;;;5051895;28;20467;-67
2021/05/28 11:58:00;;;;;;;5.10;3.90;;;;;;;;;;5050085;28;20422;-68
2021/05/28 12:00:27;;;;;;;4.70;3.57;;;;;;;;;;5032692;28;20450;-68
2021/05/28 12:02:57;;;;;;;6.03;4.40;;;;;;;;;;5032872;28;20434;-69
2021/05/28 12:05:35;;;;;;;5.43;3.73;;;;;;;;;;5035986;28;20494;-68
2021/05/28 12:08:14;;;;;;;4.37;3.73;;;;;;;;;;5032959;28;20456;-67
2021/05/28 12:10:42;;;;;;;4.90;3.00;;;;;;;;;;5049667;28;20998;-67
2021/05/28 12:13:11;;;;;;;4.80;4.00;;;;;;;;;;5050061;28;20449;-67
2021/05/28 12:15:40;;;;;;;5.13;3.40;;;;;;;;;;5051695;28;20430;-66
2021/05/28 12:18:33;;;;;;;5.13;3.53;;;;;;;;;;5033872;28;20417;-66
2021/05/28 12:21:02;;;;;;;6.73;3.53;;;;;;;;;;5040006;28;20440;-67
2021/05/28 12:23:35;;;;;;;6.97;4.20;;;;;;;;;;5042508;28;20437;-67
2021/05/28 12:26:04;;;;;;;4.80;3.60;;;;;;;;;;5051518;28;20464;-67
2021/05/28 12:28:36;;;;;;;4.80;3.57;;;;;;;;;;5051515;28;20422;-66
2021/05/28 12:31:11;;;;;;;5.00;3.60;;;;;;;;;;5052108;28;20409;-66
2021/05/28 12:33:39;;;;;;;5.43;4.03;;;;;;;;;;5046570;28;20457;-66
2021/05/28 12:36:06;;;;;;;4.93;3.60;;;;;;;;;;5032521;28;20399;-67
2021/05/28 12:38:42;;;;;;;4.50;3.90;;;;;;;;;;5036875;28;20595;-67
2021/05/28 12:41:13;;;;;;;5.57;4.00;;;;;;;;;;5049475;28;20492;-66
2021/05/28 12:43:44;;;;;;;8.10;4.47;;;;;;;;;;5051270;28;20539;-67
2021/05/28 12:46:20;;;;;;;7.13;3.77;;;;;;;;;;5051663;28;20871;-67
2021/05/28 12:48:47;;;;;;;4.87;3.50;;;;;;;;;;5049419;28;20534;-67
2021/05/28 12:51:14;;;;;;;5.40;3.70;;;;;;;;;;5051190;28;20555;-68
2021/05/28 12:53:42;;;;;;;8.07;6.90;;;;;;;;;;5050925;28;20461;-68
2021/05/28 12:56:08;;;;;;;8.10;4.17;;;;;;;;;;5051883;28;20488;-67
2021/05/28 12:58:34;;;;;;;5.40;3.73;;;;;;;;;;5050309;28;20465;-67
2021/05/28 13:01:00;;;;;;;5.33;3.70;;;;;;;;;;5051773;28;20417;-68
2021/05/28 13:03:32;;;;;;;5.90;4.90;;;;;;;;;;5047074;28;20441;-67
2021/05/28 13:05:58;;;;;;;4.23;3.23;;;;;;;;;;5032481;28;21113;-69
2021/05/28 13:08:31;;;;;;;3.80;3.40;;;;;;;;;;5032516;28;21037;-68
2021/05/28 13:11:00;;;;;;;5.63;4.00;;;;;;;;;;5033259;28;20426;-66
2021/05/28 13:13:26;;;;;;;4.03;3.27;;;;;;;;;;5033690;28;20503;-69
2021/05/28 13:15:53;;;;;;;6.47;3.97;;;;;;;;;;5032126;28;20556;-70
2021/05/28 13:18:19;;;;;;;4.77;3.63;;;;;;;;;;5034042;28;20426;-68
2021/05/28 13:20:47;;;;;;;5.50;4.13;;;;;;;;;;5040400;28;20430;-68
2021/05/28 13:23:25;;;;;;;4.63;3.70;;;;;;;;;;5043101;28;20454;-69
2021/05/28 13:25:52;;;;;;;5.70;3.83;;;;;;;;;;5034890;28;20457;-67
2021/05/28 13:28:22;;;;;;;4.53;3.60;;;;;;;;;;5035272;28;20438;-68
2021/05/28 13:30:50;;;;;;;4.77;4.00;;;;;;;;;;5032437;28;20421;-68
2021/05/28 13:33:22;;;;;;;3.30;2.80;;;;;;;;;;5033896;28;20449;-67
2021/05/28 13:35:49;;;;;;;4.20;3.73;;;;;;;;;;5035948;28;20409;-68
2021/05/28 13:38:16;;;;;;;6.93;4.77;;;;;;;;;;5034780;28;21422;-68
2021/05/28 13:40:42;;;;;;;4.53;3.73;;;;;;;;;;5034615;28;20501;-67
2021/05/28 13:43:08;;;;;;;3.67;3.27;;;;;;;;;;5034059;28;20431;-67
2021/05/28 13:45:35;;;;;;;3.87;2.90;;;;;;;;;;5055087;28;20398;-67
2021/05/28 13:48:01;;;;;;;5.70;2.80;;;;;;;;;;5055652;28;20489;-67
2021/05/28 13:50:34;;;;;;;4.20;3.03;;;;;;;;;;5054649;28;20409;-67
2021/05/28 13:53:01;;;;;;;5.20;3.30;;;;;;;;;;5036390;28;20852;-67
2021/05/28 13:55:27;;;;;;;5.63;3.20;;;;;;;;;;5035016;28;20403;-67
2021/05/28 13:57:53;;;;;;;5.43;3.10;;;;;;;;;;5034275;28;20938;-67
2021/05/28 14:00:19;;;;;;;5.20;3.13;;;;;;;;;;5031060;28;20824;-67
2021/05/28 14:02:45;;;;;;;3.87;2.63;;;;;;;;;;5033828;28;20746;-67
2021/05/28 14:05:12;;;;;;;4.70;3.87;;;;;;;;;;5034762;28;20403;-67
2021/05/28 14:07:38;;;;;;;3.80;2.77;;;;;;;;;;5033259;28;20754;-67
2021/05/28 14:10:05;;;;;;;4.60;3.13;;;;;;;;;;5033007;28;20485;-68
2021/05/28 14:12:32;;;;;;;3.00;2.40;;;;;;;;;;5031917;28;20967;-68
2021/05/28 14:14:58;;;;;;;7.33;3.30;;;;;;;;;;5032470;28;20956;-68
2021/05/28 14:17:24;;;;;;;4.23;3.10;;;;;;;;;;5032440;28;20434;-68
2021/05/28 14:19:50;;;;;;;3.63;2.90;;;;;;;;;;5033425;28;20555;-67
2021/05/28 14:22:16;;;;;;;4.07;3.13;;;;;;;;;;5028790;28;20961;-67
2021/05/28 14:24:42;;;;;;;5.40;3.10;;;;;;;;;;5041003;28;20626;-67
2021/05/28 14:27:08;;;;;;;5.90;3.90;;;;;;;;;;5032481;28;20421;-67
2021/05/28 14:29:35;;;;;;;4.27;3.27;;;;;;;;;;5030526;28;20516;-67
2021/05/28 14:32:01;;;;;;;4.20;3.43;;;;;;;;;;5038809;28;20846;-67
2021/05/28 14:34:27;;;;;;;4.07;3.10;;;;;;;;;;5033983;28;20426;-67
2021/05/28 14:36:53;;;;;;;3.20;2.90;;;;;;;;;;5036132;28;20518;-67
2021/05/28 14:39:19;;;;;;;6.60;3.53;;;;;;;;;;5030784;28;20457;-67
2021/05/28 14:41:45;;;;;;;3.70;2.43;;;;;;;;;;5039938;28;20518;-68
2021/05/28 14:44:11;;;;;;;4.80;3.50;;;;;;;;;;5029456;28;20878;-67
2021/05/28 14:46:38;;;;;;;3.50;2.80;;;;;;;;;;5030024;28;21387;-67
2021/05/28 14:49:04;;;;;;;6.43;3.17;;;;;;;;;;5033049;28;20429;-68